Time;durP1;ratioP1;P1;durP2;ratioP2;P2;SDS_P1;SDS_P2;PMS_P1;PMS_P2;Temp;Humidity;BMP_temperature;BMP_pressure;BME280_temperature;BME280_humidity;BME280_pressure;Samples;Min_cycle;Max_cycle;Signal;HPM_P1;HPM_P2
2022/09/05 00:00:03;;;;;;;8.68;3.58;;;19.30;99.40;;;;;;5105227;28;20023;-78
2022/09/05 00:02:35;;;;;;;6.28;3.38;;;19.30;99.40;;;;;;5112871;28;20074;-77
2022/09/05 00:05:23;;;;;;;5.85;3.63;;;19.30;99.40;;;;;;5100174;28;20048;-78
2022/09/05 00:08:13;;;;;;;5.90;3.50;;;19.20;99.50;;;;;;5104564;28;20156;-77
2022/09/05 00:10:53;;;;;;;7.10;3.70;;;19.20;99.40;;;;;;5112136;28;20536;-77
2022/09/05 00:13:41;;;;;;;6.03;3.60;;;19.20;99.40;;;;;;5109832;28;20047;-78
2022/09/05 00:16:35;;;;;;;7.03;3.90;;;19.20;99.40;;;;;;5098116;28;21164;-77
2022/09/05 00:19:17;;;;;;;5.03;3.45;;;19.10;99.50;;;;;;5099848;28;20043;-77
2022/09/05 00:22:04;;;;;;;5.95;3.53;;;19.10;99.50;;;;;;5109581;28;20039;-77
2022/09/05 00:24:36;;;;;;;6.82;3.53;;;19.10;99.60;;;;;;5110971;28;20071;-77
2022/09/05 00:27:14;;;;;;;6.65;3.88;;;19.00;99.60;;;;;;5091215;28;20131;-77
2022/09/05 00:30:01;;;;;;;5.57;3.60;;;19.00;99.90;;;;;;5097454;28;20409;-78
2022/09/05 00:32:45;;;;;;;5.93;3.50;;;19.00;99.70;;;;;;5102063;28;20039;-77
2022/09/05 00:35:49;;;;;;;7.70;3.88;;;18.90;99.70;;;;;;5103747;28;20469;-78
2022/09/05 00:38:19;;;;;;;5.28;3.60;;;18.90;99.90;;;;;;5068937;28;20148;-77
2022/09/05 00:40:56;;;;;;;7.28;3.97;;;18.90;99.90;;;;;;5078012;28;20047;-78
2022/09/05 00:43:32;;;;;;;5.28;3.88;;;18.90;99.90;;;;;;5111635;28;20039;-77
2022/09/05 00:46:11;;;;;;;5.90;3.83;;;18.80;99.90;;;;;;5092881;28;20036;-77
2022/09/05 00:49:13;;;;;;;5.47;3.90;;;18.80;99.90;;;;;;5107208;28;20039;-77
2022/09/05 00:51:51;;;;;;;5.70;3.92;;;18.80;99.90;;;;;;5109819;28;20175;-77
2022/09/05 00:54:22;;;;;;;6.30;3.78;;;18.80;99.90;;;;;;5107554;28;20127;-77
2022/09/05 00:57:26;;;;;;;4.63;4.10;;;18.80;99.90;;;;;;5105985;28;20032;-78
2022/09/05 01:00:01;;;;;;;5.05;3.97;;;18.70;99.90;;;;;;5093703;28;20036;-77
2022/09/05 01:02:30;;;;;;;4.60;4.00;;;18.70;99.90;;;;;;5105156;28;20466;-78
2022/09/05 01:05:19;;;;;;;8.13;3.97;;;18.60;99.90;;;;;;5110126;28;20035;-77
2022/09/05 01:08:19;;;;;;;4.65;4.00;;;18.60;99.90;;;;;;5099826;28;20412;-77
2022/09/05 01:11:09;;;;;;;5.72;4.00;;;18.60;99.90;;;;;;5101014;28;20115;-78
2022/09/05 01:14:05;;;;;;;4.60;4.03;;;18.50;99.90;;;;;;5096953;28;20043;-77
2022/09/05 01:17:03;;;;;;;7.13;4.15;;;18.50;99.90;;;;;;5104051;28;20501;-78
2022/09/05 01:19:50;;;;;;;7.10;3.95;;;18.50;99.90;;;;;;5102629;28;20502;-78
2022/09/05 01:22:37;;;;;;;6.25;4.22;;;18.40;99.90;;;;;;5092577;28;20097;-78
2022/09/05 01:25:45;;;;;;;6.20;4.25;;;18.40;99.90;;;;;;5100439;28;20455;-78
2022/09/05 01:28:38;;;;;;;5.38;4.03;;;18.40;99.90;;;;;;5106649;28;20169;-78
2022/09/05 01:31:34;;;;;;;7.03;4.55;;;18.30;99.90;;;;;;5074326;28;20049;-78
2022/09/05 01:34:56;;;;;;;6.40;4.50;;;18.30;99.90;;;;;;5104905;28;20039;-79
2022/09/05 01:37:49;;;;;;;6.43;4.40;;;18.20;99.90;;;;;;5051404;28;20044;-78
2022/09/05 01:40:29;;;;;;;5.95;4.53;;;18.20;99.90;;;;;;5041672;28;20056;-78
2022/09/05 01:43:17;;;;;;;6.10;4.43;;;18.20;99.90;;;;;;5077316;28;20100;-78
2022/09/05 01:45:46;;;;;;;8.73;4.50;;;18.10;99.90;;;;;;5106505;28;20071;-79
2022/09/05 01:48:39;;;;;;;7.63;4.70;;;18.00;99.90;;;;;;5111220;28;20051;-78
2022/09/05 01:51:26;;;;;;;5.50;4.63;;;18.00;99.90;;;;;;5098083;28;20153;-77
2022/09/05 01:54:04;;;;;;;6.93;4.55;;;18.00;99.90;;;;;;5103355;28;20118;-78
2022/09/05 01:56:59;;;;;;;5.43;4.43;;;17.90;99.90;;;;;;5100924;28;20410;-78
2022/09/05 01:59:24;;;;;;;7.85;4.60;;;17.90;99.90;;;;;;5103709;28;20036;-78
2022/09/05 02:02:20;;;;;;;6.75;5.00;;;17.90;99.90;;;;;;5094382;28;20039;-78
2022/09/05 02:05:08;;;;;;;5.97;4.47;;;17.80;99.90;;;;;;5111547;28;20036;-79
2022/09/05 02:07:51;;;;;;;7.90;4.88;;;17.80;99.90;;;;;;5103493;28;20043;-78
2022/09/05 02:10:31;;;;;;;7.22;4.60;;;17.70;99.90;;;;;;5090997;28;20051;-78
2022/09/05 02:13:15;;;;;;;5.88;4.85;;;17.70;99.90;;;;;;5100540;28;20035;-78
2022/09/05 02:15:47;;;;;;;6.47;4.65;;;17.70;99.90;;;;;;5110888;28;20039;-78
2022/09/05 02:18:25;;;;;;;8.18;5.03;;;17.70;99.90;;;;;;5111011;28;20080;-78
2022/09/05 02:21:07;;;;;;;8.10;4.85;;;17.70;99.90;;;;;;5081494;28;20039;-78
2022/09/05 02:23:51;;;;;;;6.25;4.90;;;17.60;99.90;;;;;;5108411;28;20046;-78
2022/09/05 02:26:22;;;;;;;;;;;17.60;99.90;;;;;;5099732;28;20059;-78
2022/09/05 02:28:57;;;;;;;6.68;4.72;;;17.60;99.90;;;;;;5103501;28;19916;-78
2022/09/05 02:31:47;;;;;;;9.80;4.95;;;17.60;99.90;;;;;;5109625;28;20039;-78
2022/09/05 02:34:20;;;;;;;5.13;4.60;;;17.50;99.90;;;;;;5101895;28;20139;-78
2022/09/05 02:36:59;;;;;;;6.53;4.82;;;17.50;99.90;;;;;;5107569;28;20036;-78
2022/09/05 02:39:45;;;;;;;6.35;4.90;;;17.40;99.90;;;;;;5107558;28;20046;-78
2022/09/05 02:42:15;;;;;;;6.28;4.95;;;17.40;99.90;;;;;;5110321;28;20036;-78
2022/09/05 02:45:08;;;;;;;7.18;4.88;;;17.40;99.90;;;;;;5091570;28;20077;-78
2022/09/05 02:47:41;;;;;;;5.40;4.80;;;17.40;99.90;;;;;;5111617;28;20122;-78
2022/09/05 02:50:42;;;;;;;5.78;4.82;;;17.30;99.90;;;;;;5105961;28;20043;-77
2022/09/05 02:53:11;;;;;;;6.07;5.07;;;17.30;99.90;;;;;;5109186;28;20099;-77
2022/09/05 02:55:46;;;;;;;6.82;5.78;;;17.30;99.90;;;;;;5110182;28;20028;-78
2022/09/05 02:58:44;;;;;;;5.80;4.90;;;17.20;99.90;;;;;;5108631;28;20093;-78
2022/09/05 03:01:45;;;;;;;5.82;5.25;;;17.20;99.90;;;;;;5104743;28;20081;-78
2022/09/05 03:04:22;;;;;;;8.32;5.20;;;17.10;99.90;;;;;;5096948;28;20044;-78
2022/09/05 03:07:06;;;;;;;6.88;5.75;;;17.10;99.90;;;;;;5104178;28;20024;-77
2022/09/05 03:09:58;;;;;;;7.10;5.47;;;17.10;99.90;;;;;;5109122;28;20044;-78
2022/09/05 03:12:38;;;;;;;7.07;5.53;;;17.10;99.90;;;;;;5111855;28;20044;-77
2022/09/05 03:15:42;;;;;;;7.82;5.50;;;17.00;99.90;;;;;;5099955;28;20031;-77
2022/09/05 03:18:07;;;;;;;7.22;5.50;;;17.00;99.90;;;;;;5108243;28;20050;-77
2022/09/05 03:21:07;;;;;;;8.43;5.80;;;16.90;99.90;;;;;;5113509;28;20036;-78
2022/09/05 03:24:00;;;;;;;7.95;5.75;;;16.90;99.90;;;;;;5094049;28;20111;-78
2022/09/05 03:26:44;;;;;;;8.80;5.38;;;16.90;99.90;;;;;;5107151;28;20043;-77
2022/09/05 03:29:32;;;;;;;7.15;5.70;;;16.80;99.90;;;;;;5092713;28;20040;-78
2022/09/05 03:32:33;;;;;;;5.82;5.10;;;16.80;99.90;;;;;;5106393;28;20629;-78
2022/09/05 03:35:32;;;;;;;6.25;5.65;;;16.80;99.90;;;;;;5069327;28;20040;-79
2022/09/05 03:38:32;;;;;;;8.05;5.80;;;16.70;99.90;;;;;;5093576;28;20040;-78
2022/09/05 03:41:16;;;;;;;13.20;6.57;;;16.70;99.90;;;;;;5093328;28;20111;-78
2022/09/05 03:44:01;;;;;;;8.43;5.40;;;16.70;99.90;;;;;;5102404;28;20035;-78
2022/09/05 03:46:44;;;;;;;7.93;5.80;;;16.70;99.90;;;;;;5108107;28;20433;-78
2022/09/05 03:49:27;;;;;;;7.05;5.70;;;16.60;99.90;;;;;;5107500;28;20064;-78
2022/09/05 03:52:17;;;;;;;6.93;5.82;;;16.70;99.90;;;;;;5109447;28;20124;-78
2022/09/05 03:54:57;;;;;;;8.88;5.80;;;16.70;99.90;;;;;;5093643;28;20116;-78
2022/09/05 03:57:36;;;;;;;6.05;5.45;;;16.60;99.90;;;;;;5093289;28;20448;-78
2022/09/05 04:00:10;;;;;;;7.55;5.93;;;16.60;99.90;;;;;;5091615;28;20062;-78
2022/09/05 04:03:16;;;;;;;7.05;6.03;;;16.60;99.90;;;;;;5113166;28;20043;-78
2022/09/05 04:05:56;;;;;;;8.93;6.25;;;16.60;99.90;;;;;;5109405;28;20108;-79
2022/09/05 04:08:37;;;;;;;8.45;6.20;;;16.50;99.90;;;;;;5108324;28;20044;-78
2022/09/05 04:11:13;;;;;;;8.13;6.10;;;16.40;99.90;;;;;;5105088;28;20155;-79
2022/09/05 04:13:57;;;;;;;8.68;5.65;;;16.40;99.90;;;;;;5095844;28;20038;-78
2022/09/05 04:16:31;;;;;;;10.93;5.90;;;16.40;99.90;;;;;;5107452;28;20042;-79
2022/09/05 04:19:37;;;;;;;7.53;5.93;;;16.30;99.90;;;;;;5108783;28;20396;-78
2022/09/05 04:22:21;;;;;;;7.35;6.28;;;16.30;99.90;;;;;;5048508;28;20055;-78
2022/09/05 04:25:09;;;;;;;7.40;6.18;;;16.30;99.90;;;;;;5104125;28;20048;-78
2022/09/05 04:28:13;;;;;;;9.10;6.55;;;16.30;99.90;;;;;;5107927;28;20047;-78
2022/09/05 04:30:47;;;;;;;6.70;5.97;;;16.20;99.90;;;;;;5105144;28;20036;-78
2022/09/05 04:33:37;;;;;;;9.63;6.35;;;16.20;99.90;;;;;;5107475;28;20073;-78
2022/09/05 04:36:25;;;;;;;8.65;5.95;;;16.20;99.90;;;;;;5101877;28;20093;-78
2022/09/05 04:39:18;;;;;;;10.30;6.57;;;16.20;99.90;;;;;;5081473;28;20114;-78
2022/09/05 04:41:50;;;;;;;7.33;6.00;;;16.10;99.90;;;;;;5108878;28;20039;-78
2022/09/05 04:44:35;;;;;;;8.65;6.30;;;16.10;99.90;;;;;;5112288;28;20132;-78
2022/09/05 04:47:25;;;;;;;8.52;6.10;;;16.10;99.90;;;;;;5093042;28;20048;-78
2022/09/05 04:50:04;;;;;;;9.85;6.55;;;16.10;99.90;;;;;;5087027;28;20043;-77
2022/09/05 04:53:02;;;;;;;7.55;6.18;;;16.00;99.90;;;;;;5099030;28;20413;-78
2022/09/05 04:55:38;;;;;;;8.63;6.75;;;16.00;99.90;;;;;;5101819;28;20093;-78
2022/09/05 04:58:25;;;;;;;7.43;6.32;;;16.00;99.90;;;;;;5102244;28;20126;-78
2022/09/05 05:01:31;;;;;;;8.45;6.75;;;16.00;99.90;;;;;;5101323;28;20060;-78
2022/09/05 05:04:09;;;;;;;8.05;6.30;;;15.90;99.90;;;;;;5091128;28;20063;-78
2022/09/05 05:06:39;;;;;;;9.52;6.50;;;15.90;99.90;;;;;;5093499;28;20082;-79
2022/09/05 05:09:26;;;;;;;9.90;6.55;;;15.90;99.90;;;;;;5106778;28;20053;-78
2022/09/05 05:12:04;;;;;;;9.23;7.50;;;15.90;99.90;;;;;;5096251;28;20036;-79
2022/09/05 05:14:48;;;;;;;10.68;7.00;;;15.80;99.90;;;;;;5101510;28;20165;-79
2022/09/05 05:17:30;;;;;;;10.32;6.63;;;15.80;99.90;;;;;;5103490;28;20036;-78
2022/09/05 05:20:15;;;;;;;10.15;7.30;;;15.80;99.90;;;;;;5101750;28;20040;-78
2022/09/05 05:23:07;;;;;;;10.18;7.00;;;15.80;99.90;;;;;;5104932;28;20453;-79
2022/09/05 05:25:44;;;;;;;11.55;6.30;;;15.80;99.90;;;;;;5102831;28;20382;-79
2022/09/05 05:28:20;;;;;;;7.68;6.82;;;15.80;99.90;;;;;;5111955;28;20131;-78
2022/09/05 05:30:46;;;;;;;8.68;6.75;;;15.90;99.90;;;;;;5102852;28;20527;-78
2022/09/05 05:33:24;;;;;;;12.50;6.82;;;15.90;99.90;;;;;;5107466;28;20122;-79
2022/09/05 05:35:51;;;;;;;13.30;7.40;;;16.00;99.90;;;;;;5101913;28;20038;-78
2022/09/05 05:38:16;;;;;;;11.15;6.60;;;16.10;99.90;;;;;;5104091;28;20092;-77
2022/09/05 05:40:51;;;;;;;9.88;6.82;;;16.20;99.90;;;;;;5108432;28;20032;-77
2022/09/05 05:43:36;;;;;;;9.43;7.47;;;16.30;99.90;;;;;;5103643;28;20078;-77
2022/09/05 05:46:02;;;;;;;7.90;6.47;;;16.30;99.90;;;;;;5107412;28;20561;-77
2022/09/05 05:48:36;;;;;;;8.23;6.65;;;16.40;99.90;;;;;;5110450;28;20122;-77
2022/09/05 05:51:26;;;;;;;7.03;6.32;;;16.50;99.90;;;;;;5113351;27;20051;-77
2022/09/05 05:54:25;;;;;;;8.18;6.40;;;16.60;99.90;;;;;;5102119;28;20448;-76
2022/09/05 05:57:21;;;;;;;7.93;6.95;;;16.70;99.90;;;;;;5099675;28;20475;-77
2022/09/05 06:00:03;;;;;;;8.55;6.40;;;16.80;99.90;;;;;;5102353;28;20039;-77
2022/09/05 06:02:47;;;;;;;8.18;6.25;;;16.90;99.90;;;;;;5073947;28;20032;-77
2022/09/05 06:05:56;;;;;;;11.05;6.60;;;17.00;99.90;;;;;;5097847;28;20078;-77
2022/09/05 06:09:09;;;;;;;9.52;6.70;;;17.10;99.90;;;;;;5107429;28;20040;-77
2022/09/05 06:12:05;;;;;;;8.30;6.90;;;17.20;99.90;;;;;;5073712;28;20044;-77
2022/09/05 06:15:24;;;;;;;7.38;6.35;;;17.30;99.90;;;;;;5103017;28;20035;-77
2022/09/05 06:18:24;;;;;;;8.70;6.35;;;17.40;99.90;;;;;;5051444;28;20055;-77
2022/09/05 06:20:53;;;;;;;7.75;6.55;;;17.50;99.90;;;;;;5103918;28;20234;-76
2022/09/05 06:24:03;;;;;;;7.88;6.40;;;17.50;99.90;;;;;;5097763;28;20460;-77
2022/09/05 06:26:34;;;;;;;7.28;6.55;;;17.60;99.90;;;;;;5079352;28;20051;-77
2022/09/05 06:29:38;;;;;;;7.95;6.93;;;17.70;99.90;;;;;;5104888;28;20654;-77
2022/09/05 06:32:06;;;;;;;9.38;6.57;;;17.80;99.90;;;;;;5109577;28;20040;-77
2022/09/05 06:34:40;;;;;;;7.70;6.80;;;17.90;99.90;;;;;;5105319;27;20612;-78
2022/09/05 06:37:16;;;;;;;7.95;6.47;;;18.00;99.90;;;;;;5113798;28;20047;-77
2022/09/05 06:40:14;;;;;;;7.70;6.90;;;18.10;99.90;;;;;;5113166;28;20126;-77
2022/09/05 06:43:06;;;;;;;9.35;6.40;;;18.30;99.90;;;;;;5103655;28;20061;-77
2022/09/05 06:45:50;;;;;;;9.82;7.10;;;18.30;99.90;;;;;;5100224;28;20043;-77
2022/09/05 06:48:29;;;;;;;8.27;6.13;;;18.50;99.90;;;;;;5112575;28;20036;-79
2022/09/05 06:51:13;;;;;;;12.30;6.65;;;18.60;99.90;;;;;;5076669;28;20052;-78
2022/09/05 06:54:11;;;;;;;7.55;6.82;;;18.70;99.90;;;;;;5112741;28;20052;-79
2022/09/05 06:56:52;;;;;;;7.57;6.47;;;18.80;99.90;;;;;;5114092;28;20039;-77
2022/09/05 06:59:37;;;;;;;7.13;6.30;;;18.90;99.90;;;;;;5108395;28;20040;-78
2022/09/05 07:02:22;;;;;;;;;;;18.90;99.90;;;;;;5103617;28;20459;-77
2022/09/05 07:05:27;;;;;;;8.10;6.30;;;19.00;99.90;;;;;;5075520;28;20411;-77
2022/09/05 07:08:16;;;;;;;7.57;6.20;;;19.10;99.90;;;;;;5077863;28;20051;-75
2022/09/05 07:10:54;;;;;;;9.50;6.07;;;19.20;99.90;;;;;;5074366;28;20040;-77
2022/09/05 07:13:44;;;;;;;6.93;5.78;;;19.40;99.90;;;;;;5101199;28;20039;-76
2022/09/05 07:16:16;;;;;;;7.45;5.95;;;19.60;99.90;;;;;;5109015;28;20122;-78
2022/09/05 07:18:47;;;;;;;7.72;6.35;;;19.80;99.90;;;;;;5107518;28;20031;-77
2022/09/05 07:21:29;;;;;;;6.95;5.82;;;20.00;99.90;;;;;;5113100;28;20039;-77
2022/09/05 07:24:23;;;;;;;8.50;5.70;;;20.10;99.90;;;;;;5103821;28;20111;-77
2022/09/05 07:26:50;;;;;;;6.57;5.85;;;20.40;99.90;;;;;;5102938;28;20036;-77
2022/09/05 07:29:26;;;;;;;9.00;5.60;;;20.40;99.90;;;;;;5107821;28;20047;-78
2022/09/05 07:31:54;;;;;;;7.30;5.70;;;20.60;99.90;;;;;;5097437;28;20084;-77
2022/09/05 07:34:31;;;;;;;8.70;5.53;;;20.60;99.90;;;;;;5106391;28;20067;-78
2022/09/05 07:37:04;;;;;;;6.38;5.78;;;20.70;99.90;;;;;;5106245;28;20040;-77
2022/09/05 07:39:36;;;;;;;6.78;5.60;;;20.80;99.90;;;;;;5091976;28;20401;-77
2022/09/05 07:42:06;;;;;;;6.93;6.18;;;20.90;99.90;;;;;;5108637;28;20040;-76
2022/09/05 07:44:36;;;;;;;7.30;6.13;;;21.00;99.90;;;;;;5110746;28;20511;-77
2022/09/05 07:47:14;;;;;;;11.57;5.85;;;21.10;99.90;;;;;;5113045;28;20064;-78
2022/09/05 07:49:41;;;;;;;7.93;6.25;;;21.20;99.90;;;;;;5098757;28;20054;-79
2022/09/05 07:52:19;;;;;;;8.80;6.20;;;21.40;99.90;;;;;;5102254;28;20047;-77
2022/09/05 07:54:47;;;;;;;8.15;5.78;;;21.50;99.90;;;;;;5101646;28;20035;-78
2022/09/05 07:57:31;;;;;;;9.20;6.15;;;21.50;99.90;;;;;;5109027;28;20067;-77
2022/09/05 08:00:11;;;;;;;6.95;5.80;;;21.60;99.90;;;;;;5102550;28;20032;-78
2022/09/05 08:02:44;;;;;;;7.35;6.07;;;21.60;99.90;;;;;;5106222;28;20051;-79
2022/09/05 08:05:13;;;;;;;7.18;6.07;;;21.80;99.90;;;;;;5084145;28;20406;-77
2022/09/05 08:07:43;;;;;;;6.38;5.75;;;21.90;99.90;;;;;;5092248;28;20043;-78
2022/09/05 08:10:21;;;;;;;9.10;5.55;;;22.00;99.90;;;;;;5093710;28;20040;-78
2022/09/05 08:13:16;;;;;;;7.50;5.43;;;22.20;99.90;;;;;;5093628;28;20048;-79
2022/09/05 08:15:52;;;;;;;6.20;5.57;;;22.40;99.90;;;;;;5070862;28;20101;-78
2022/09/05 08:18:29;;;;;;;7.78;5.95;;;22.50;99.90;;;;;;5092496;28;20036;-78
2022/09/05 08:21:12;;;;;;;8.07;5.78;;;22.60;99.90;;;;;;5075732;28;20115;-78
2022/09/05 08:24:04;;;;;;;9.57;6.20;;;22.60;99.90;;;;;;5093035;28;20032;-79
2022/09/05 08:26:59;;;;;;;7.20;5.60;;;22.50;99.90;;;;;;5111146;28;20547;-79
2022/09/05 08:29:31;;;;;;;7.70;5.60;;;22.50;99.90;;;;;;5109650;28;20040;-78
2022/09/05 08:32:12;;;;;;;6.95;6.07;;;22.50;99.90;;;;;;5091163;28;20036;-79
2022/09/05 08:34:47;;;;;;;8.18;5.65;;;22.50;99.90;;;;;;5105410;28;20063;-80
2022/09/05 08:37:20;;;;;;;6.90;5.82;;;22.50;99.90;;;;;;5090530;28;20515;-80
2022/09/05 08:39:50;;;;;;;7.18;5.43;;;22.50;99.90;;;;;;5112088;28;20032;-79
2022/09/05 08:42:18;;;;;;;7.05;5.40;;;22.60;99.90;;;;;;5099903;28;20474;-79
2022/09/05 08:45:19;;;;;;;6.07;5.20;;;22.70;99.90;;;;;;5110062;28;20043;-79
2022/09/05 08:48:15;;;;;;;7.65;5.47;;;22.80;99.90;;;;;;5106706;27;20056;-79
2022/09/05 08:51:03;;;;;;;8.35;5.70;;;22.90;99.90;;;;;;5113626;28;20058;-80
2022/09/05 08:53:40;;;;;;;7.15;5.65;;;22.90;99.90;;;;;;5108432;28;20032;-79
2022/09/05 08:56:34;;;;;;;5.80;5.30;;;23.10;99.90;;;;;;5111733;28;20032;-80
2022/09/05 08:59:20;;;;;;;8.55;5.32;;;23.20;99.90;;;;;;5097974;28;20043;-81
2022/09/05 09:02:10;;;;;;;7.22;5.10;;;23.30;99.90;;;;;;5103829;28;20393;-80
2022/09/05 09:05:08;;;;;;;8.80;5.43;;;23.50;99.90;;;;;;5093320;28;20047;-80
2022/09/05 09:07:47;;;;;;;9.00;4.88;;;23.70;99.90;;;;;;5099180;28;20036;-79
2022/09/05 09:10:54;;;;;;;6.40;4.82;;;23.80;99.90;;;;;;5103774;28;20043;-79
2022/09/05 09:13:51;;;;;;;9.23;5.10;;;23.80;99.90;;;;;;5106598;28;20343;-79
2022/09/05 09:16:36;;;;;;;8.43;4.75;;;23.90;99.90;;;;;;5094658;28;20046;-79
2022/09/05 09:19:17;;;;;;;7.88;4.40;;;24.00;99.90;;;;;;5099521;28;20175;-79
2022/09/05 09:22:12;;;;;;;4.88;4.35;;;24.20;99.90;;;;;;5102166;28;20123;-79
2022/09/05 09:24:44;;;;;;;6.00;4.47;;;24.20;99.90;;;;;;5098365;28;20047;-80
2022/09/05 09:27:48;;;;;;;7.78;4.15;;;24.30;99.90;;;;;;5102854;28;20048;-79
2022/09/05 09:30:16;;;;;;;6.03;4.70;;;24.40;99.90;;;;;;5095759;28;20051;-80
2022/09/05 09:32:48;;;;;;;6.35;4.70;;;24.50;99.90;;;;;;5104839;28;20044;-80
2022/09/05 09:35:22;;;;;;;10.38;4.55;;;24.60;99.90;;;;;;5100222;28;20036;-80
2022/09/05 09:37:59;;;;;;;7.25;4.70;;;24.60;99.90;;;;;;5106485;28;20084;-77
2022/09/05 09:40:32;;;;;;;7.80;4.70;;;24.70;99.80;;;;;;5093515;28;20410;-80
2022/09/05 09:43:21;;;;;;;8.30;4.63;;;24.70;99.70;;;;;;5102576;28;20066;-79
2022/09/05 09:46:16;;;;;;;10.13;4.38;;;24.80;99.60;;;;;;5098331;28;20043;-79
2022/09/05 09:49:12;;;;;;;5.80;4.47;;;24.90;99.40;;;;;;5105436;28;20105;-80
2022/09/05 09:51:44;;;;;;;4.80;4.05;;;24.90;99.10;;;;;;5102468;28;20043;-80
2022/09/05 09:54:47;;;;;;;5.82;4.13;;;25.00;99.20;;;;;;5091320;28;20089;-77
2022/09/05 09:57:38;;;;;;;5.25;4.00;;;25.10;98.80;;;;;;5107893;28;20042;-80
2022/09/05 10:00:06;;;;;;;5.03;3.83;;;25.20;98.50;;;;;;5076066;28;20062;-79
2022/09/05 10:02:50;;;;;;;6.68;3.72;;;25.30;98.60;;;;;;5106596;28;20039;-79
2022/09/05 10:05:30;;;;;;;9.30;3.47;;;25.40;98.60;;;;;;5102498;28;20044;-79
2022/09/05 10:08:10;;;;;;;4.43;3.40;;;25.50;98.70;;;;;;5100755;28;20401;-79
2022/09/05 10:10:57;;;;;;;7.82;2.97;;;25.60;98.30;;;;;;5104745;28;20031;-79
2022/09/05 10:13:42;;;;;;;5.05;2.78;;;25.60;98.10;;;;;;5104959;28;20122;-79
2022/09/05 10:16:14;;;;;;;4.93;2.85;;;25.60;97.60;;;;;;5107902;28;20058;-80
2022/09/05 10:19:06;;;;;;;5.00;3.10;;;25.60;97.40;;;;;;5091252;28;20040;-80
2022/09/05 10:22:08;;;;;;;5.75;2.80;;;25.70;97.20;;;;;;5092011;28;20051;-80
2022/09/05 10:24:47;;;;;;;4.32;2.63;;;25.80;97.10;;;;;;5102118;28;20040;-79
2022/09/05 10:27:37;;;;;;;4.47;2.88;;;25.90;97.10;;;;;;5107150;28;20128;-79
2022/09/05 10:30:05;;;;;;;5.40;2.88;;;26.00;96.90;;;;;;5083870;28;20031;-80
2022/09/05 10:33:02;;;;;;;4.18;2.88;;;26.10;96.80;;;;;;5094089;28;20397;-79
2022/09/05 10:35:40;;;;;;;4.80;2.38;;;26.20;96.50;;;;;;5079326;28;20065;-78
2022/09/05 10:38:11;;;;;;;6.88;2.65;;;26.40;96.40;;;;;;5090245;28;20039;-79
2022/09/05 10:40:42;;;;;;;3.33;2.38;;;26.50;96.10;;;;;;5100599;28;20028;-79
2022/09/05 10:43:21;;;;;;;5.00;2.47;;;26.60;96.10;;;;;;5087432;28;20028;-79
2022/09/05 10:46:07;;;;;;;2.88;2.53;;;26.70;96.00;;;;;;5089779;28;20036;-79
2022/09/05 10:48:47;;;;;;;5.25;2.63;;;26.90;95.90;;;;;;5091248;28;20051;-79
2022/09/05 10:51:48;;;;;;;6.93;2.60;;;27.00;95.80;;;;;;5093723;28;20046;-79
2022/09/05 10:54:29;;;;;;;6.90;2.50;;;27.10;95.90;;;;;;5100003;28;20501;-79
2022/09/05 10:57:07;;;;;;;4.53;2.60;;;27.20;95.30;;;;;;5102855;28;20451;-78
2022/09/05 10:59:50;;;;;;;5.85;2.75;;;27.30;95.40;;;;;;5106106;28;20544;-78
2022/09/05 11:02:25;;;;;;;4.18;2.50;;;27.40;95.20;;;;;;5096006;28;20036;-78
2022/09/05 11:05:22;;;;;;;5.45;2.30;;;27.60;95.10;;;;;;5099325;28;20040;-76
2022/09/05 11:08:15;;;;;;;7.20;2.40;;;27.70;94.90;;;;;;5109683;28;20102;-79
2022/09/05 11:11:00;;;;;;;6.55;2.50;;;27.80;94.50;;;;;;5093224;28;20063;-79
2022/09/05 11:13:41;;;;;;;7.78;2.50;;;28.00;94.50;;;;;;5098496;28;20100;-79
2022/09/05 11:16:20;;;;;;;3.85;2.20;;;28.30;94.20;;;;;;5085918;28;20040;-79
2022/09/05 11:19:06;;;;;;;4.47;2.20;;;28.40;93.80;;;;;;5123628;27;20032;-78
2022/09/05 11:21:58;;;;;;;6.38;2.25;;;28.50;94.00;;;;;;5110632;28;20519;-78
2022/09/05 11:24:46;;;;;;;5.05;2.40;;;28.40;93.50;;;;;;5112050;28;20062;-78
2022/09/05 11:27:38;;;;;;;7.47;2.20;;;28.40;93.80;;;;;;5108808;28;20032;-79
2022/09/05 11:30:05;;;;;;;3.88;2.42;;;28.40;92.80;;;;;;5099614;28;20047;-78
2022/09/05 11:32:42;;;;;;;3.80;2.10;;;28.60;93.30;;;;;;5107318;28;20035;-78
2022/09/05 11:35:22;;;;;;;3.60;2.30;;;28.90;93.10;;;;;;5102216;28;20039;-78
2022/09/05 11:38:35;;;;;;;3.80;2.22;;;29.10;92.70;;;;;;5112340;28;20043;-78
2022/09/05 11:41:46;;;;;;;6.50;2.17;;;29.20;92.20;;;;;;5101411;28;20043;-78
2022/09/05 11:44:48;;;;;;;2.53;1.80;;;29.50;92.50;;;;;;5096220;28;20546;-78
2022/09/05 11:48:00;;;;;;;3.45;1.90;;;29.70;91.60;;;;;;5093583;28;20074;-78
2022/09/05 11:50:45;;;;;;;4.07;1.90;;;29.90;91.30;;;;;;5078826;28;20032;-78
2022/09/05 11:53:50;;;;;;;4.50;2.00;;;30.10;91.30;;;;;;5093224;28;20097;-79
2022/09/05 11:56:25;;;;;;;4.15;2.13;;;30.20;91.20;;;;;;5095013;28;20439;-80
2022/09/05 11:59:06;;;;;;;7.72;2.22;;;30.30;91.20;;;;;;5077157;28;20039;-78
2022/09/05 12:02:12;;;;;;;6.05;2.50;;;30.10;90.80;;;;;;5104644;28;20042;-79
2022/09/05 12:05:29;;;;;;;4.78;2.50;;;30.00;91.10;;;;;;5093313;28;20050;-76
2022/09/05 12:08:05;;;;;;;4.75;2.15;;;30.30;90.70;;;;;;5060017;28;20060;-76
2022/09/05 12:11:19;;;;;;;7.38;2.47;;;30.60;91.00;;;;;;5091730;28;20501;-78
2022/09/05 12:14:16;;;;;;;4.88;2.45;;;30.80;90.70;;;;;;5094071;28;20040;-78
2022/09/05 12:16:44;;;;;;;4.57;2.30;;;30.80;90.30;;;;;;5104611;28;20042;-80
2022/09/05 12:19:29;;;;;;;3.15;2.13;;;30.40;90.30;;;;;;5099741;28;20113;-79
2022/09/05 12:22:01;;;;;;;4.20;2.10;;;30.00;90.10;;;;;;5095369;28;20028;-80
2022/09/05 12:24:58;;;;;;;4.53;2.33;;;29.70;90.40;;;;;;5098491;28;20044;-79
2022/09/05 12:27:28;;;;;;;3.95;2.17;;;29.60;90.60;;;;;;5095804;28;20484;-79
2022/09/05 12:30:03;;;;;;;3.53;2.20;;;29.50;87.90;;;;;;5081538;28;20043;-80
2022/09/05 12:32:30;;;;;;;3.35;2.38;;;29.50;90.20;;;;;;5098712;28;20032;-80
2022/09/05 12:35:01;;;;;;;4.18;2.50;;;29.70;90.30;;;;;;5083630;28;20495;-80
2022/09/05 12:37:48;;;;;;;5.13;2.58;;;30.00;89.50;;;;;;5100519;28;20075;-80
2022/09/05 12:40:23;;;;;;;3.72;2.13;;;30.30;87.40;;;;;;5090143;28;20489;-79
2022/09/05 12:43:01;;;;;;;6.13;2.50;;;30.50;89.20;;;;;;5099718;28;20036;-79
2022/09/05 12:46:00;;;;;;;5.97;2.40;;;30.40;89.10;;;;;;5096030;28;20047;-79
2022/09/05 12:49:00;;;;;;;6.40;2.80;;;30.30;88.90;;;;;;5093537;28;20121;-81
2022/09/05 12:51:32;;;;;;;4.97;2.50;;;30.20;89.00;;;;;;5090871;28;20637;-80
2022/09/05 12:54:01;;;;;;;4.80;2.45;;;29.90;89.50;;;;;;5113915;28;20039;-80
2022/09/05 12:56:46;;;;;;;3.65;2.40;;;29.80;89.70;;;;;;5114440;28;20460;-79
2022/09/05 12:59:22;;;;;;;4.70;2.60;;;29.50;89.70;;;;;;5096560;28;20067;-80
2022/09/05 13:02:02;;;;;;;4.72;2.38;;;29.30;89.40;;;;;;5076148;28;20067;-80
2022/09/05 13:04:35;;;;;;;5.25;2.42;;;29.40;89.80;;;;;;5093115;28;20079;-81
2022/09/05 13:07:17;;;;;;;4.07;2.22;;;29.60;90.00;;;;;;5093264;28;20458;-81
2022/09/05 13:09:55;;;;;;;3.80;2.20;;;29.70;89.30;;;;;;5093591;28;20093;-79
2022/09/05 13:12:35;;;;;;;4.57;2.40;;;30.00;89.10;;;;;;5091654;28;20040;-80
2022/09/05 13:15:14;;;;;;;5.15;2.40;;;30.30;88.70;;;;;;5076170;28;20060;-81
2022/09/05 13:18:06;;;;;;;5.05;2.20;;;30.70;87.90;;;;;;5093253;28;20063;-81
2022/09/05 13:20:43;;;;;;;4.18;2.13;;;31.20;88.60;;;;;;5095160;28;20414;-80
2022/09/05 13:23:31;;;;;;;3.00;2.03;;;31.50;86.90;;;;;;5094061;28;20105;-80
2022/09/05 13:26:22;;;;;;;2.90;2.20;;;31.90;86.30;;;;;;5092710;28;20059;-80
2022/09/05 13:28:51;;;;;;;2.58;2.15;;;31.90;84.30;;;;;;5094626;28;20043;-79
2022/09/05 13:31:40;;;;;;;4.45;2.00;;;31.50;85.40;;;;;;5076600;28;20036;-81
2022/09/05 13:34:14;;;;;;;3.80;2.08;;;31.10;84.10;;;;;;5090435;28;20047;-80
2022/09/05 13:36:50;;;;;;;4.25;2.10;;;30.90;85.10;;;;;;5110317;28;20417;-78
2022/09/05 13:39:19;;;;;;;4.32;1.80;;;31.20;86.30;;;;;;5094448;28;20421;-79
2022/09/05 13:41:58;;;;;;;5.50;1.85;;;31.50;86.00;;;;;;5106511;28;20112;-78
2022/09/05 13:44:26;;;;;;;3.60;2.17;;;31.80;84.60;;;;;;5084656;28;20134;-80
2022/09/05 13:47:04;;;;;;;5.95;2.00;;;31.60;84.60;;;;;;5109241;28;20384;-80
2022/09/05 13:49:35;;;;;;;6.25;2.00;;;31.40;84.70;;;;;;5112492;28;20053;-81
2022/09/05 13:52:03;;;;;;;2.97;2.10;;;31.10;84.60;;;;;;5113223;28;20568;-80
2022/09/05 13:55:07;;;;;;;2.50;1.90;;;30.80;85.30;;;;;;5112502;28;20095;-81
2022/09/05 13:57:39;;;;;;;2.00;1.80;;;30.40;83.80;;;;;;5093417;28;20086;-81
2022/09/05 14:00:16;;;;;;;2.20;1.80;;;30.20;84.90;;;;;;5092470;28;20031;-80
2022/09/05 14:03:10;;;;;;;2.58;1.95;;;30.00;85.90;;;;;;5091745;28;20040;-80
2022/09/05 14:05:57;;;;;;;4.15;1.88;;;29.90;83.70;;;;;;5092461;28;20036;-81
2022/09/05 14:09:03;;;;;;;2.88;1.98;;;29.80;84.60;;;;;;5092912;28;20586;-81
2022/09/05 14:11:54;;;;;;;2.88;1.92;;;29.60;83.90;;;;;;5112032;28;20086;-80
2022/09/05 14:14:50;;;;;;;3.28;1.80;;;29.80;85.90;;;;;;5102691;28;20071;-80